Pagrindinis puslapis
METAR-TAF:

METAR-TAF

Oro uostai :

Jonšiopingas, Švedija

platuma: 57-46N, ilguma: 014-05E, Aukštis: 226 m

Dabartinis oras

Ataskaita buvo paskelbta 12 minutes, ne 20:50 UTC
Vėjas 8 kt iš Pietų
Temperatūra 15°C
Drėgmė 100%
Slėgis 1005 hPa
Matomumas 10 km arba daugiau

METAR: ESGJ 172050Z AUTO 19008KT 9999 BKN006/// OVC010/// 15/15 Q1005

Laikas: 23:02 (21:02 UTC)

Prognozė

Ataskaita buvo paskelbta 27 valandos ir 32 minutes, ne 17:30 UTC
Prognozė galioja nuo 16 metu 18 UTC su 16 metu 21 UTC
Vėjas 8 kt iš Vakarų/Pietvakarių
Matomumas 10 km arba daugiau
Išsisklaidę debesys ne aukštis 4000 ft

TAF: ESGJ 161730Z 1618/1621 25008KT 9999 SCT040

Orai ataskaitas ir orų prognozės (METAR, TAF).

turimą stotys yra geltonos ir raudonos taškus žemėlapyje.

Perkelti pele per norėdami pamatyti stoties vardą.

Tada spustelėkite, norėdami matyti oro stebėjimo ir prognozės.

Norėdami pakeisti žemėlapį: spustelėkite ant žalios mygtukų su juodo kryžiaus žemyn,; žalią mygtuką su brūkšneliu, jei norite nutolinti; arba žalių rodyklių gretimoms žemėlapius.


METAR-TAF: